CYLA

Aupaluk Airport

Aupaluk, Quebec, Canada
METAR CYLA 272100Z 14016KT 15SM FEW020 SCT150 BKN230 01/M02 A2996 RMK SC1AC3CI2 LAST STFD OBS/NEXT 281200UTC SLP150
Observed Flight Rules
May-27 @ 21:00 UTC (4 hours ago) Visual Flight Rules
Wind Visibility Clouds
140° at 16 knots 15 miles
  • Few at 2,000' AGL
  • Scattered at 15,000' AGL
  • Broken at 23,000' AGL
Temperatures Readings
Current 1°C / 34°F
Dewpoint -2°C / 28°F
Humidity 81%
Altimeter 29.96" Hg
Pressure 1015 hPa
Elevation 35
METAR CYLA 272100Z 14016KT 15SM FEW020 SCT150 BKN230 01/M02 A2996 RMK SC1AC3CI2 LAST STFD OBS/NEXT 281200UTC SLP150
Observed Flight Rules
May-27 @ 21:00 UTC
(4 hours ago)
VFR
Wind Visibility
140° at 16 knots 15 miles
Clouds
  • Few at 2,000' AGL
  • Scattered at 15,000' AGL
  • Broken at 23,000' AGL
Temperature Dewpoint
1°C / 34°F -2°C / 28°F
Humidity Altimeter Pressure
81% 29.96" Hg 1015 hPa